sensor_id;sensor_type;location;lat;lon;timestamp;temperature;humidity
814;DHT22;389;48.710;9.392;2022-08-03T00:01:04;18.70;99.90
814;DHT22;389;48.710;9.392;2022-08-03T00:03:30;18.60;99.90
814;DHT22;389;48.710;9.392;2022-08-03T00:05:56;18.60;99.90
814;DHT22;389;48.710;9.392;2022-08-03T00:08:21;18.60;99.90
814;DHT22;389;48.710;9.392;2022-08-03T00:10:47;18.60;99.90
814;DHT22;389;48.710;9.392;2022-08-03T00:13:13;18.60;99.90
814;DHT22;389;48.710;9.392;2022-08-03T00:15:42;18.60;99.90
814;DHT22;389;48.710;9.392;2022-08-03T00:18:08;18.50;99.90
814;DHT22;389;48.710;9.392;2022-08-03T00:20:34;18.50;99.90
814;DHT22;389;48.710;9.392;2022-08-03T00:22:59;18.50;99.90
814;DHT22;389;48.710;9.392;2022-08-03T00:25:25;18.50;99.90
814;DHT22;389;48.710;9.392;2022-08-03T00:27:51;18.40;99.90
814;DHT22;389;48.710;9.392;2022-08-03T00:30:16;18.40;99.90
814;DHT22;389;48.710;9.392;2022-08-03T00:32:42;18.40;99.90
814;DHT22;389;48.710;9.392;2022-08-03T00:35:08;18.40;99.90
814;DHT22;389;48.710;9.392;2022-08-03T00:37:37;18.30;99.90
814;DHT22;389;48.710;9.392;2022-08-03T00:40:06;18.40;99.90
814;DHT22;389;48.710;9.392;2022-08-03T00:42:31;18.30;99.90
814;DHT22;389;48.710;9.392;2022-08-03T00:44:57;18.40;99.90
814;DHT22;389;48.710;9.392;2022-08-03T00:47:22;18.40;99.90
814;DHT22;389;48.710;9.392;2022-08-03T00:49:48;18.40;99.90
814;DHT22;389;48.710;9.392;2022-08-03T00:52:14;18.30;99.90
814;DHT22;389;48.710;9.392;2022-08-03T00:54:41;18.30;99.90
814;DHT22;389;48.710;9.392;2022-08-03T00:57:07;18.30;99.90
814;DHT22;389;48.710;9.392;2022-08-03T00:59:32;18.30;99.90
814;DHT22;389;48.710;9.392;2022-08-03T01:01:58;18.20;99.90
814;DHT22;389;48.710;9.392;2022-08-03T01:04:24;18.20;99.90
814;DHT22;389;48.710;9.392;2022-08-03T01:10:25;18.20;99.90
814;DHT22;389;48.710;9.392;2022-08-03T01:12:55;18.20;99.90
814;DHT22;389;48.710;9.392;2022-08-03T01:15:57;18.10;99.90
814;DHT22;389;48.710;9.392;2022-08-03T01:18:51;18.10;99.90
814;DHT22;389;48.710;9.392;2022-08-03T01:21:27;18.10;99.90
814;DHT22;389;48.710;9.392;2022-08-03T01:24:21;18.10;99.90
814;DHT22;389;48.710;9.392;2022-08-03T01:29:38;18.00;99.90
814;DHT22;389;48.710;9.392;2022-08-03T01:32:29;18.00;99.90
814;DHT22;389;48.710;9.392;2022-08-03T01:35:03;17.90;99.90
814;DHT22;389;48.710;9.392;2022-08-03T01:37:46;17.90;99.90
814;DHT22;389;48.710;9.392;2022-08-03T01:40:15;17.90;99.90
814;DHT22;389;48.710;9.392;2022-08-03T01:42:42;17.90;99.90
814;DHT22;389;48.710;9.392;2022-08-03T01:45:10;17.80;99.90
814;DHT22;389;48.710;9.392;2022-08-03T01:47:37;17.80;99.90
814;DHT22;389;48.710;9.392;2022-08-03T01:50:04;17.80;99.90
814;DHT22;389;48.710;9.392;2022-08-03T01:52:31;17.80;99.90
814;DHT22;389;48.710;9.392;2022-08-03T01:54:58;17.80;99.90
814;DHT22;389;48.710;9.392;2022-08-03T01:57:27;17.80;99.90
814;DHT22;389;48.710;9.392;2022-08-03T01:59:55;17.70;99.90
814;DHT22;389;48.710;9.392;2022-08-03T02:02:21;17.70;99.90
814;DHT22;389;48.710;9.392;2022-08-03T02:04:49;17.70;99.90
814;DHT22;389;48.710;9.392;2022-08-03T02:07:17;17.80;99.90
814;DHT22;389;48.710;9.392;2022-08-03T02:09:46;17.60;99.90
814;DHT22;389;48.710;9.392;2022-08-03T02:12:14;17.60;99.90
814;DHT22;389;48.710;9.392;2022-08-03T02:14:42;17.60;99.90
814;DHT22;389;48.710;9.392;2022-08-03T02:17:09;17.60;99.90
814;DHT22;389;48.710;9.392;2022-08-03T02:19:36;17.70;99.90
814;DHT22;389;48.710;9.392;2022-08-03T02:22:04;17.70;99.90
814;DHT22;389;48.710;9.392;2022-08-03T02:24:30;17.50;99.90
814;DHT22;389;48.710;9.392;2022-08-03T02:26:57;17.50;99.90
814;DHT22;389;48.710;9.392;2022-08-03T02:29:25;17.50;99.90
814;DHT22;389;48.710;9.392;2022-08-03T02:31:51;17.60;99.90
814;DHT22;389;48.710;9.392;2022-08-03T02:34:20;17.50;99.90
814;DHT22;389;48.710;9.392;2022-08-03T02:36:49;17.50;99.90
814;DHT22;389;48.710;9.392;2022-08-03T02:39:19;17.40;99.90
814;DHT22;389;48.710;9.392;2022-08-03T02:41:51;17.40;99.90
814;DHT22;389;48.710;9.392;2022-08-03T02:44:21;17.40;99.90
814;DHT22;389;48.710;9.392;2022-08-03T02:46:54;17.40;99.90
814;DHT22;389;48.710;9.392;2022-08-03T02:49:22;17.40;99.90
814;DHT22;389;48.710;9.392;2022-08-03T02:51:49;17.40;99.90
814;DHT22;389;48.710;9.392;2022-08-03T02:54:18;17.30;99.90
814;DHT22;389;48.710;9.392;2022-08-03T02:56:45;17.30;99.90
814;DHT22;389;48.710;9.392;2022-08-03T02:59:13;17.30;99.90
814;DHT22;389;48.710;9.392;2022-08-03T03:01:39;17.30;99.90
814;DHT22;389;48.710;9.392;2022-08-03T03:04:06;17.30;99.90
814;DHT22;389;48.710;9.392;2022-08-03T03:06:33;17.30;99.90
814;DHT22;389;48.710;9.392;2022-08-03T03:09:00;17.40;99.90
814;DHT22;389;48.710;9.392;2022-08-03T03:11:26;17.20;99.90
814;DHT22;389;48.710;9.392;2022-08-03T03:13:52;17.20;99.90
814;DHT22;389;48.710;9.392;2022-08-03T03:16:21;17.20;99.90
814;DHT22;389;48.710;9.392;2022-08-03T03:18:48;17.20;99.90
814;DHT22;389;48.710;9.392;2022-08-03T03:21:17;17.30;99.90
814;DHT22;389;48.710;9.392;2022-08-03T03:23:44;17.10;99.90
814;DHT22;389;48.710;9.392;2022-08-03T03:26:13;17.20;99.90
814;DHT22;389;48.710;9.392;2022-08-03T03:28:40;17.20;99.90
814;DHT22;389;48.710;9.392;2022-08-03T03:31:06;17.10;99.90
814;DHT22;389;48.710;9.392;2022-08-03T03:33:33;17.10;99.90
814;DHT22;389;48.710;9.392;2022-08-03T03:35:59;17.00;99.90
814;DHT22;389;48.710;9.392;2022-08-03T03:38:26;17.00;99.90
814;DHT22;389;48.710;9.392;2022-08-03T03:40:51;17.00;99.90
814;DHT22;389;48.710;9.392;2022-08-03T03:43:17;17.10;99.90
814;DHT22;389;48.710;9.392;2022-08-03T03:45:44;17.00;99.90
814;DHT22;389;48.710;9.392;2022-08-03T03:48:11;17.00;99.90
814;DHT22;389;48.710;9.392;2022-08-03T03:50:37;17.00;99.90
814;DHT22;389;48.710;9.392;2022-08-03T03:53:08;17.00;99.90
814;DHT22;389;48.710;9.392;2022-08-03T03:55:38;17.00;99.90
814;DHT22;389;48.710;9.392;2022-08-03T03:58:04;17.00;99.90
814;DHT22;389;48.710;9.392;2022-08-03T04:00:30;17.10;99.90
814;DHT22;389;48.710;9.392;2022-08-03T04:02:56;17.10;99.90
814;DHT22;389;48.710;9.392;2022-08-03T04:05:21;17.00;99.90
814;DHT22;389;48.710;9.392;2022-08-03T04:08:11;17.00;99.90
814;DHT22;389;48.710;9.392;2022-08-03T04:13:36;17.00;99.90
814;DHT22;389;48.710;9.392;2022-08-03T04:16:03;17.00;99.90
814;DHT22;389;48.710;9.392;2022-08-03T04:18:31;17.00;99.90
814;DHT22;389;48.710;9.392;2022-08-03T04:21:01;17.00;99.90
814;DHT22;389;48.710;9.392;2022-08-03T04:23:30;17.20;99.90
814;DHT22;389;48.710;9.392;2022-08-03T04:25:58;17.00;99.90
814;DHT22;389;48.710;9.392;2022-08-03T04:28:26;17.10;99.90
814;DHT22;389;48.710;9.392;2022-08-03T04:30:53;17.10;99.90
814;DHT22;389;48.710;9.392;2022-08-03T04:33:20;17.10;99.90
814;DHT22;389;48.710;9.392;2022-08-03T04:35:48;17.20;99.90
814;DHT22;389;48.710;9.392;2022-08-03T04:38:17;17.10;99.90
814;DHT22;389;48.710;9.392;2022-08-03T04:40:45;17.20;99.90
814;DHT22;389;48.710;9.392;2022-08-03T04:43:12;17.20;99.90
814;DHT22;389;48.710;9.392;2022-08-03T04:45:39;17.20;99.90
814;DHT22;389;48.710;9.392;2022-08-03T04:48:05;17.30;99.90
814;DHT22;389;48.710;9.392;2022-08-03T04:50:31;17.40;99.90
814;DHT22;389;48.710;9.392;2022-08-03T04:52:58;17.40;99.90
814;DHT22;389;48.710;9.392;2022-08-03T04:55:28;17.50;99.90
814;DHT22;389;48.710;9.392;2022-08-03T04:57:55;17.70;99.90
814;DHT22;389;48.710;9.392;2022-08-03T05:00:21;17.60;99.90
814;DHT22;389;48.710;9.392;2022-08-03T05:02:47;17.70;99.90
814;DHT22;389;48.710;9.392;2022-08-03T05:05:13;17.80;99.90
814;DHT22;389;48.710;9.392;2022-08-03T05:07:40;17.90;99.90
814;DHT22;389;48.710;9.392;2022-08-03T05:10:07;18.20;99.90
814;DHT22;389;48.710;9.392;2022-08-03T05:12:33;18.40;99.90
814;DHT22;389;48.710;9.392;2022-08-03T05:14:59;18.80;99.90
814;DHT22;389;48.710;9.392;2022-08-03T05:17:25;19.30;99.90
814;DHT22;389;48.710;9.392;2022-08-03T05:19:51;20.00;99.90
814;DHT22;389;48.710;9.392;2022-08-03T05:22:16;20.50;99.90
814;DHT22;389;48.710;9.392;2022-08-03T05:24:42;21.10;99.90
814;DHT22;389;48.710;9.392;2022-08-03T05:27:07;21.70;99.50
814;DHT22;389;48.710;9.392;2022-08-03T05:29:33;22.20;98.50
814;DHT22;389;48.710;9.392;2022-08-03T05:31:59;22.70;97.50
814;DHT22;389;48.710;9.392;2022-08-03T05:34:25;23.20;96.60
814;DHT22;389;48.710;9.392;2022-08-03T05:36:51;23.70;95.30
814;DHT22;389;48.710;9.392;2022-08-03T05:39:17;24.10;94.70
814;DHT22;389;48.710;9.392;2022-08-03T05:41:42;24.50;94.10
814;DHT22;389;48.710;9.392;2022-08-03T05:44:08;24.80;93.30
814;DHT22;389;48.710;9.392;2022-08-03T05:46:33;25.10;92.60
814;DHT22;389;48.710;9.392;2022-08-03T05:48:59;25.50;92.00
814;DHT22;389;48.710;9.392;2022-08-03T05:51:24;25.70;91.40
814;DHT22;389;48.710;9.392;2022-08-03T05:53:50;26.00;90.80
814;DHT22;389;48.710;9.392;2022-08-03T05:56:16;26.30;90.30
814;DHT22;389;48.710;9.392;2022-08-03T05:58:46;26.50;89.70
814;DHT22;389;48.710;9.392;2022-08-03T06:01:12;26.70;89.20
814;DHT22;389;48.710;9.392;2022-08-03T06:03:37;26.80;87.80
814;DHT22;389;48.710;9.392;2022-08-03T06:06:03;27.00;86.90
814;DHT22;389;48.710;9.392;2022-08-03T06:08:28;27.00;85.80
814;DHT22;389;48.710;9.392;2022-08-03T06:10:54;27.20;85.10
814;DHT22;389;48.710;9.392;2022-08-03T06:13:19;27.20;84.30
814;DHT22;389;48.710;9.392;2022-08-03T06:15:46;27.30;84.20
814;DHT22;389;48.710;9.392;2022-08-03T06:18:11;27.50;83.60
814;DHT22;389;48.710;9.392;2022-08-03T06:20:37;27.70;82.80
814;DHT22;389;48.710;9.392;2022-08-03T06:23:02;27.80;81.90
814;DHT22;389;48.710;9.392;2022-08-03T06:25:28;27.90;81.80
814;DHT22;389;48.710;9.392;2022-08-03T06:27:55;27.90;81.50
814;DHT22;389;48.710;9.392;2022-08-03T06:30:20;28.00;81.80
814;DHT22;389;48.710;9.392;2022-08-03T06:32:46;28.20;81.40
814;DHT22;389;48.710;9.392;2022-08-03T06:35:12;28.40;80.70
814;DHT22;389;48.710;9.392;2022-08-03T06:37:43;28.60;80.00
814;DHT22;389;48.710;9.392;2022-08-03T06:40:11;28.90;79.10
814;DHT22;389;48.710;9.392;2022-08-03T06:42:37;29.10;78.60
814;DHT22;389;48.710;9.392;2022-08-03T06:45:02;29.30;77.70
814;DHT22;389;48.710;9.392;2022-08-03T06:47:28;29.50;76.80
814;DHT22;389;48.710;9.392;2022-08-03T06:49:54;29.50;76.60
814;DHT22;389;48.710;9.392;2022-08-03T06:52:19;29.60;76.40
814;DHT22;389;48.710;9.392;2022-08-03T06:54:45;29.60;76.30
814;DHT22;389;48.710;9.392;2022-08-03T06:57:10;29.40;75.70
814;DHT22;389;48.710;9.392;2022-08-03T06:59:37;29.10;76.10
814;DHT22;389;48.710;9.392;2022-08-03T07:02:03;28.90;76.60
814;DHT22;389;48.710;9.392;2022-08-03T07:04:29;28.50;77.20
814;DHT22;389;48.710;9.392;2022-08-03T07:06:54;28.20;78.10
814;DHT22;389;48.710;9.392;2022-08-03T07:09:21;28.00;79.40
814;DHT22;389;48.710;9.392;2022-08-03T07:11:47;27.70;80.00
814;DHT22;389;48.710;9.392;2022-08-03T07:14:12;27.50;81.00
814;DHT22;389;48.710;9.392;2022-08-03T07:16:38;27.30;81.30
814;DHT22;389;48.710;9.392;2022-08-03T07:19:03;27.20;82.00
814;DHT22;389;48.710;9.392;2022-08-03T07:21:29;27.00;81.90
814;DHT22;389;48.710;9.392;2022-08-03T07:23:55;26.90;82.50
814;DHT22;389;48.710;9.392;2022-08-03T07:26:20;26.80;82.90
814;DHT22;389;48.710;9.392;2022-08-03T07:28:53;26.70;83.70
814;DHT22;389;48.710;9.392;2022-08-03T07:31:19;26.60;83.60
814;DHT22;389;48.710;9.392;2022-08-03T07:33:45;26.50;83.60
814;DHT22;389;48.710;9.392;2022-08-03T07:36:10;26.50;84.20
814;DHT22;389;48.710;9.392;2022-08-03T07:38:36;26.40;84.50
814;DHT22;389;48.710;9.392;2022-08-03T07:41:02;26.40;84.80
814;DHT22;389;48.710;9.392;2022-08-03T07:43:28;26.40;86.00
814;DHT22;389;48.710;9.392;2022-08-03T07:45:54;26.40;85.20
814;DHT22;389;48.710;9.392;2022-08-03T07:48:20;26.40;85.30
814;DHT22;389;48.710;9.392;2022-08-03T07:50:45;26.40;86.30
814;DHT22;389;48.710;9.392;2022-08-03T07:53:11;26.40;85.60
814;DHT22;389;48.710;9.392;2022-08-03T07:55:37;26.50;85.60
814;DHT22;389;48.710;9.392;2022-08-03T07:58:08;26.50;84.90
814;DHT22;389;48.710;9.392;2022-08-03T08:00:36;26.60;85.00
814;DHT22;389;48.710;9.392;2022-08-03T08:03:03;26.70;84.60
814;DHT22;389;48.710;9.392;2022-08-03T08:05:29;26.50;84.50
814;DHT22;389;48.710;9.392;2022-08-03T08:07:54;26.70;84.50
814;DHT22;389;48.710;9.392;2022-08-03T08:10:20;26.80;84.30
814;DHT22;389;48.710;9.392;2022-08-03T08:12:46;26.80;83.60
814;DHT22;389;48.710;9.392;2022-08-03T08:15:12;26.80;83.30
814;DHT22;389;48.710;9.392;2022-08-03T08:20:14;26.90;82.40
814;DHT22;389;48.710;9.392;2022-08-03T08:22:40;26.90;82.90
814;DHT22;389;48.710;9.392;2022-08-03T08:25:06;26.90;83.00
814;DHT22;389;48.710;9.392;2022-08-03T08:27:32;26.90;83.10
814;DHT22;389;48.710;9.392;2022-08-03T08:29:57;27.00;83.50
814;DHT22;389;48.710;9.392;2022-08-03T08:32:23;27.10;83.60
814;DHT22;389;48.710;9.392;2022-08-03T08:34:49;27.10;83.90
814;DHT22;389;48.710;9.392;2022-08-03T08:37:15;27.30;82.90
814;DHT22;389;48.710;9.392;2022-08-03T08:39:40;27.40;82.20
814;DHT22;389;48.710;9.392;2022-08-03T08:42:06;27.50;82.00
814;DHT22;389;48.710;9.392;2022-08-03T08:44:32;27.60;80.30
814;DHT22;389;48.710;9.392;2022-08-03T08:47:00;27.60;79.90
814;DHT22;389;48.710;9.392;2022-08-03T08:49:27;27.50;80.20
814;DHT22;389;48.710;9.392;2022-08-03T08:51:55;27.60;80.30
814;DHT22;389;48.710;9.392;2022-08-03T08:54:24;27.50;80.50
814;DHT22;389;48.710;9.392;2022-08-03T08:56:50;27.60;79.30
814;DHT22;389;48.710;9.392;2022-08-03T08:59:17;27.70;79.00
814;DHT22;389;48.710;9.392;2022-08-03T09:01:43;27.90;79.50
814;DHT22;389;48.710;9.392;2022-08-03T09:04:09;28.00;78.10
814;DHT22;389;48.710;9.392;2022-08-03T09:06:34;28.10;78.30
814;DHT22;389;48.710;9.392;2022-08-03T09:09:00;28.20;77.70
814;DHT22;389;48.710;9.392;2022-08-03T09:11:26;28.30;77.70
814;DHT22;389;48.710;9.392;2022-08-03T09:13:51;28.30;76.40
814;DHT22;389;48.710;9.392;2022-08-03T09:16:19;28.50;76.50
814;DHT22;389;48.710;9.392;2022-08-03T09:18:52;28.60;74.80
814;DHT22;389;48.710;9.392;2022-08-03T09:21:26;28.70;74.30
814;DHT22;389;48.710;9.392;2022-08-03T09:23:55;28.80;73.90
814;DHT22;389;48.710;9.392;2022-08-03T09:26:28;28.90;74.30
814;DHT22;389;48.710;9.392;2022-08-03T09:29:00;29.00;73.40
814;DHT22;389;48.710;9.392;2022-08-03T09:31:43;29.00;72.80
814;DHT22;389;48.710;9.392;2022-08-03T09:34:15;29.20;73.80
814;DHT22;389;48.710;9.392;2022-08-03T09:36:44;29.20;73.60
814;DHT22;389;48.710;9.392;2022-08-03T09:39:18;29.30;74.40
814;DHT22;389;48.710;9.392;2022-08-03T09:44:39;29.30;73.00
814;DHT22;389;48.710;9.392;2022-08-03T09:47:07;29.50;73.20
814;DHT22;389;48.710;9.392;2022-08-03T09:49:35;29.60;73.60
814;DHT22;389;48.710;9.392;2022-08-03T09:52:11;29.70;72.30
814;DHT22;389;48.710;9.392;2022-08-03T09:54:37;29.80;72.90
814;DHT22;389;48.710;9.392;2022-08-03T09:57:03;29.90;73.40
814;DHT22;389;48.710;9.392;2022-08-03T09:59:30;30.10;71.70
814;DHT22;389;48.710;9.392;2022-08-03T10:01:57;30.10;69.20
814;DHT22;389;48.710;9.392;2022-08-03T10:04:25;30.20;68.20
814;DHT22;389;48.710;9.392;2022-08-03T10:07:05;30.30;68.10
814;DHT22;389;48.710;9.392;2022-08-03T10:09:31;30.40;68.00
814;DHT22;389;48.710;9.392;2022-08-03T10:12:06;30.40;65.80
814;DHT22;389;48.710;9.392;2022-08-03T10:14:32;30.60;65.00
814;DHT22;389;48.710;9.392;2022-08-03T10:17:00;30.60;64.00
814;DHT22;389;48.710;9.392;2022-08-03T10:19:26;30.80;63.50
814;DHT22;389;48.710;9.392;2022-08-03T10:25:10;30.90;60.40
814;DHT22;389;48.710;9.392;2022-08-03T10:27:39;31.00;59.90
814;DHT22;389;48.710;9.392;2022-08-03T10:30:07;31.10;58.90
814;DHT22;389;48.710;9.392;2022-08-03T10:35:05;31.20;57.50
814;DHT22;389;48.710;9.392;2022-08-03T10:37:36;31.30;57.50
814;DHT22;389;48.710;9.392;2022-08-03T10:40:06;31.40;57.60
814;DHT22;389;48.710;9.392;2022-08-03T10:42:35;31.50;58.20
814;DHT22;389;48.710;9.392;2022-08-03T10:45:08;31.50;58.00
814;DHT22;389;48.710;9.392;2022-08-03T10:47:36;31.50;57.30
814;DHT22;389;48.710;9.392;2022-08-03T10:50:03;31.60;57.40
814;DHT22;389;48.710;9.392;2022-08-03T10:52:28;31.70;58.50
814;DHT22;389;48.710;9.392;2022-08-03T10:54:54;31.70;58.70
814;DHT22;389;48.710;9.392;2022-08-03T11:00:18;31.80;58.00
814;DHT22;389;48.710;9.392;2022-08-03T11:05:30;31.80;58.10
814;DHT22;389;48.710;9.392;2022-08-03T11:10:59;31.90;59.50
814;DHT22;389;48.710;9.392;2022-08-03T11:13:26;31.90;59.60
814;DHT22;389;48.710;9.392;2022-08-03T11:15:57;32.10;59.80
814;DHT22;389;48.710;9.392;2022-08-03T11:18:23;32.10;59.40
814;DHT22;389;48.710;9.392;2022-08-03T11:20:54;32.20;59.20
814;DHT22;389;48.710;9.392;2022-08-03T11:28:41;32.30;58.40
814;DHT22;389;48.710;9.392;2022-08-03T11:34:08;32.20;58.20
814;DHT22;389;48.710;9.392;2022-08-03T11:39:39;32.10;58.80
814;DHT22;389;48.710;9.392;2022-08-03T11:44:50;32.20;58.90
814;DHT22;389;48.710;9.392;2022-08-03T11:47:16;32.30;59.00
814;DHT22;389;48.710;9.392;2022-08-03T11:49:49;32.40;58.50
814;DHT22;389;48.710;9.392;2022-08-03T11:52:16;32.50;58.60
814;DHT22;389;48.710;9.392;2022-08-03T11:54:42;32.50;58.40
814;DHT22;389;48.710;9.392;2022-08-03T11:57:08;32.60;56.30
814;DHT22;389;48.710;9.392;2022-08-03T11:59:35;32.60;56.50
814;DHT22;389;48.710;9.392;2022-08-03T12:02:11;32.70;56.00
814;DHT22;389;48.710;9.392;2022-08-03T12:04:50;32.60;56.10
814;DHT22;389;48.710;9.392;2022-08-03T12:07:16;32.70;56.10
814;DHT22;389;48.710;9.392;2022-08-03T12:09:43;32.70;56.30
814;DHT22;389;48.710;9.392;2022-08-03T12:12:08;32.70;55.90
814;DHT22;389;48.710;9.392;2022-08-03T12:14:34;32.70;55.30
814;DHT22;389;48.710;9.392;2022-08-03T12:17:00;32.70;55.00
814;DHT22;389;48.710;9.392;2022-08-03T12:19:26;32.80;55.00
814;DHT22;389;48.710;9.392;2022-08-03T12:21:51;32.80;55.40
814;DHT22;389;48.710;9.392;2022-08-03T12:24:17;32.80;55.80
814;DHT22;389;48.710;9.392;2022-08-03T12:26:49;32.80;55.20
814;DHT22;389;48.710;9.392;2022-08-03T12:29:16;32.80;54.70
814;DHT22;389;48.710;9.392;2022-08-03T12:31:42;32.80;55.10
814;DHT22;389;48.710;9.392;2022-08-03T12:34:08;32.90;55.30
814;DHT22;389;48.710;9.392;2022-08-03T12:36:34;32.90;54.90
814;DHT22;389;48.710;9.392;2022-08-03T12:39:03;33.00;54.60
814;DHT22;389;48.710;9.392;2022-08-03T12:41:34;33.00;54.90
814;DHT22;389;48.710;9.392;2022-08-03T12:44:08;33.00;55.40
814;DHT22;389;48.710;9.392;2022-08-03T12:46:36;33.10;54.70
814;DHT22;389;48.710;9.392;2022-08-03T12:54:19;33.30;54.40
814;DHT22;389;48.710;9.392;2022-08-03T12:57:02;33.30;54.40
814;DHT22;389;48.710;9.392;2022-08-03T12:59:34;33.40;54.20
814;DHT22;389;48.710;9.392;2022-08-03T13:02:04;33.50;53.90
814;DHT22;389;48.710;9.392;2022-08-03T13:04:33;33.50;53.00
814;DHT22;389;48.710;9.392;2022-08-03T13:07:09;33.60;52.90
814;DHT22;389;48.710;9.392;2022-08-03T13:12:16;33.60;52.70
814;DHT22;389;48.710;9.392;2022-08-03T13:14:43;33.50;52.10
814;DHT22;389;48.710;9.392;2022-08-03T13:17:09;33.50;52.90
814;DHT22;389;48.710;9.392;2022-08-03T13:19:36;33.50;53.10
814;DHT22;389;48.710;9.392;2022-08-03T13:22:19;33.50;53.30
814;DHT22;389;48.710;9.392;2022-08-03T13:24:48;33.60;53.60
814;DHT22;389;48.710;9.392;2022-08-03T13:27:14;33.60;53.70
814;DHT22;389;48.710;9.392;2022-08-03T13:29:40;33.70;52.10
814;DHT22;389;48.710;9.392;2022-08-03T13:32:08;33.80;52.30
814;DHT22;389;48.710;9.392;2022-08-03T13:34:33;33.80;51.70
814;DHT22;389;48.710;9.392;2022-08-03T13:36:59;33.80;51.00
814;DHT22;389;48.710;9.392;2022-08-03T13:39:25;33.80;51.90
814;DHT22;389;48.710;9.392;2022-08-03T13:41:50;33.80;51.40
814;DHT22;389;48.710;9.392;2022-08-03T13:44:17;33.80;51.30
814;DHT22;389;48.710;9.392;2022-08-03T13:46:44;33.80;51.20
814;DHT22;389;48.710;9.392;2022-08-03T13:49:09;33.80;50.90
814;DHT22;389;48.710;9.392;2022-08-03T13:51:35;33.80;50.70
814;DHT22;389;48.710;9.392;2022-08-03T13:54:01;33.80;50.20
814;DHT22;389;48.710;9.392;2022-08-03T13:56:27;33.80;50.30
814;DHT22;389;48.710;9.392;2022-08-03T13:58:54;33.80;51.60
814;DHT22;389;48.710;9.392;2022-08-03T14:01:20;33.80;50.90
814;DHT22;389;48.710;9.392;2022-08-03T14:03:52;33.80;50.90
814;DHT22;389;48.710;9.392;2022-08-03T14:06:23;33.80;50.20
814;DHT22;389;48.710;9.392;2022-08-03T14:08:49;33.80;50.20
814;DHT22;389;48.710;9.392;2022-08-03T14:11:16;33.80;51.00
814;DHT22;389;48.710;9.392;2022-08-03T14:13:42;33.80;50.80
814;DHT22;389;48.710;9.392;2022-08-03T14:16:07;33.90;50.10
814;DHT22;389;48.710;9.392;2022-08-03T14:18:33;33.90;49.70
814;DHT22;389;48.710;9.392;2022-08-03T14:21:00;33.90;49.20
814;DHT22;389;48.710;9.392;2022-08-03T14:23:28;33.90;49.70
814;DHT22;389;48.710;9.392;2022-08-03T14:25:54;33.90;49.20
814;DHT22;389;48.710;9.392;2022-08-03T14:28:21;33.90;50.00
814;DHT22;389;48.710;9.392;2022-08-03T14:30:47;33.90;49.70
814;DHT22;389;48.710;9.392;2022-08-03T14:33:13;33.90;49.50
814;DHT22;389;48.710;9.392;2022-08-03T14:35:39;34.00;49.90
814;DHT22;389;48.710;9.392;2022-08-03T14:38:05;34.00;48.70
814;DHT22;389;48.710;9.392;2022-08-03T14:40:30;34.00;48.80
814;DHT22;389;48.710;9.392;2022-08-03T14:42:56;34.00;48.30
814;DHT22;389;48.710;9.392;2022-08-03T14:45:22;34.00;48.70
814;DHT22;389;48.710;9.392;2022-08-03T14:47:47;34.10;48.90
814;DHT22;389;48.710;9.392;2022-08-03T14:50:13;34.10;49.00
814;DHT22;389;48.710;9.392;2022-08-03T14:52:38;34.10;48.40
814;DHT22;389;48.710;9.392;2022-08-03T14:55:04;34.20;47.40
814;DHT22;389;48.710;9.392;2022-08-03T14:57:30;34.20;47.40
814;DHT22;389;48.710;9.392;2022-08-03T14:59:56;34.20;47.60
814;DHT22;389;48.710;9.392;2022-08-03T15:02:21;34.20;48.00
814;DHT22;389;48.710;9.392;2022-08-03T15:04:47;34.30;48.00
814;DHT22;389;48.710;9.392;2022-08-03T15:07:13;34.30;48.10
814;DHT22;389;48.710;9.392;2022-08-03T15:09:38;34.30;48.80
814;DHT22;389;48.710;9.392;2022-08-03T15:12:04;34.40;48.70
814;DHT22;389;48.710;9.392;2022-08-03T15:14:31;34.40;49.00
814;DHT22;389;48.710;9.392;2022-08-03T15:16:56;34.40;48.60
814;DHT22;389;48.710;9.392;2022-08-03T15:19:22;34.40;48.30
814;DHT22;389;48.710;9.392;2022-08-03T15:21:48;34.40;48.30
814;DHT22;389;48.710;9.392;2022-08-03T15:24:13;34.40;48.30
814;DHT22;389;48.710;9.392;2022-08-03T15:26:39;34.40;47.40
814;DHT22;389;48.710;9.392;2022-08-03T15:29:05;34.30;47.40
814;DHT22;389;48.710;9.392;2022-08-03T15:31:32;34.40;48.20
814;DHT22;389;48.710;9.392;2022-08-03T15:33:58;34.30;48.20
814;DHT22;389;48.710;9.392;2022-08-03T15:36:23;34.30;48.60
814;DHT22;389;48.710;9.392;2022-08-03T15:38:50;34.20;48.70
814;DHT22;389;48.710;9.392;2022-08-03T15:41:16;34.20;48.90
814;DHT22;389;48.710;9.392;2022-08-03T15:43:41;34.20;49.10
814;DHT22;389;48.710;9.392;2022-08-03T15:46:07;34.20;48.10
814;DHT22;389;48.710;9.392;2022-08-03T15:48:33;34.20;47.90
814;DHT22;389;48.710;9.392;2022-08-03T15:50:59;34.10;48.00
814;DHT22;389;48.710;9.392;2022-08-03T15:53:24;34.10;47.90
814;DHT22;389;48.710;9.392;2022-08-03T15:55:50;34.10;48.50
814;DHT22;389;48.710;9.392;2022-08-03T15:58:15;34.10;49.00
814;DHT22;389;48.710;9.392;2022-08-03T16:00:42;34.10;48.80
814;DHT22;389;48.710;9.392;2022-08-03T16:03:08;34.00;48.10
814;DHT22;389;48.710;9.392;2022-08-03T16:05:33;34.00;48.10
814;DHT22;389;48.710;9.392;2022-08-03T16:07:59;34.00;48.40
814;DHT22;389;48.710;9.392;2022-08-03T16:10:33;33.90;48.00
814;DHT22;389;48.710;9.392;2022-08-03T16:13:09;33.90;48.80
814;DHT22;389;48.710;9.392;2022-08-03T16:15:35;33.90;47.80
814;DHT22;389;48.710;9.392;2022-08-03T16:18:00;33.90;49.30
814;DHT22;389;48.710;9.392;2022-08-03T16:20:26;33.90;48.50
814;DHT22;389;48.710;9.392;2022-08-03T16:22:52;33.90;47.70
814;DHT22;389;48.710;9.392;2022-08-03T16:25:17;33.80;48.20
814;DHT22;389;48.710;9.392;2022-08-03T16:27:44;33.80;48.20
814;DHT22;389;48.710;9.392;2022-08-03T16:30:11;33.80;48.70
814;DHT22;389;48.710;9.392;2022-08-03T16:32:38;33.80;48.90
814;DHT22;389;48.710;9.392;2022-08-03T16:35:05;33.80;49.20
814;DHT22;389;48.710;9.392;2022-08-03T16:37:30;33.80;48.90
814;DHT22;389;48.710;9.392;2022-08-03T16:39:56;33.80;49.10
814;DHT22;389;48.710;9.392;2022-08-03T16:42:22;33.80;49.50
814;DHT22;389;48.710;9.392;2022-08-03T16:44:48;33.80;48.40
814;DHT22;389;48.710;9.392;2022-08-03T16:47:14;33.80;48.90
814;DHT22;389;48.710;9.392;2022-08-03T16:49:40;33.80;48.80
814;DHT22;389;48.710;9.392;2022-08-03T16:52:06;33.80;49.30
814;DHT22;389;48.710;9.392;2022-08-03T16:54:32;33.70;48.40
814;DHT22;389;48.710;9.392;2022-08-03T16:56:57;33.70;48.80
814;DHT22;389;48.710;9.392;2022-08-03T16:59:23;33.70;48.70
814;DHT22;389;48.710;9.392;2022-08-03T17:01:49;33.60;48.60
814;DHT22;389;48.710;9.392;2022-08-03T17:04:15;33.70;48.90
814;DHT22;389;48.710;9.392;2022-08-03T17:06:42;33.70;49.10
814;DHT22;389;48.710;9.392;2022-08-03T17:09:12;33.70;48.50
814;DHT22;389;48.710;9.392;2022-08-03T17:11:43;33.70;49.10
814;DHT22;389;48.710;9.392;2022-08-03T17:14:10;33.70;49.10
814;DHT22;389;48.710;9.392;2022-08-03T17:16:37;33.70;49.20
814;DHT22;389;48.710;9.392;2022-08-03T17:19:06;33.70;49.40
814;DHT22;389;48.710;9.392;2022-08-03T17:21:34;33.70;49.30
814;DHT22;389;48.710;9.392;2022-08-03T17:24:09;33.70;49.30
814;DHT22;389;48.710;9.392;2022-08-03T17:26:45;33.70;49.10